sensor_id;sensor_type;location;lat;lon;timestamp;P1;durP1;ratioP1;P2;durP2;ratioP2
11777;SDS011;5946;51.770;8.548;2024-01-10T00:01:32;12.17;;;6.97;;
11777;SDS011;5946;51.770;8.548;2024-01-10T00:03:58;11.97;;;6.73;;
11777;SDS011;5946;51.770;8.548;2024-01-10T00:06:24;13.17;;;6.87;;
11777;SDS011;5946;51.770;8.548;2024-01-10T00:08:50;14.57;;;7.10;;
11777;SDS011;5946;51.770;8.548;2024-01-10T00:11:16;13.80;;;6.70;;
11777;SDS011;5946;51.770;8.548;2024-01-10T00:13:42;15.20;;;7.13;;
11777;SDS011;5946;51.770;8.548;2024-01-10T00:16:08;14.47;;;7.27;;
11777;SDS011;5946;51.770;8.548;2024-01-10T00:18:34;14.50;;;6.93;;
11777;SDS011;5946;51.770;8.548;2024-01-10T00:21:00;14.17;;;7.70;;
11777;SDS011;5946;51.770;8.548;2024-01-10T00:23:26;13.13;;;7.13;;
11777;SDS011;5946;51.770;8.548;2024-01-10T00:25:52;13.07;;;7.47;;
11777;SDS011;5946;51.770;8.548;2024-01-10T00:28:17;14.07;;;7.17;;
11777;SDS011;5946;51.770;8.548;2024-01-10T00:30:44;17.83;;;6.80;;
11777;SDS011;5946;51.770;8.548;2024-01-10T00:33:12;14.57;;;7.37;;
11777;SDS011;5946;51.770;8.548;2024-01-10T00:35:38;14.13;;;7.50;;
11777;SDS011;5946;51.770;8.548;2024-01-10T00:38:04;14.13;;;7.40;;
11777;SDS011;5946;51.770;8.548;2024-01-10T00:40:30;15.37;;;7.63;;
11777;SDS011;5946;51.770;8.548;2024-01-10T00:42:56;13.53;;;7.00;;
11777;SDS011;5946;51.770;8.548;2024-01-10T00:45:22;14.47;;;7.50;;
11777;SDS011;5946;51.770;8.548;2024-01-10T00:47:48;14.43;;;7.37;;
11777;SDS011;5946;51.770;8.548;2024-01-10T00:50:14;12.93;;;7.10;;
11777;SDS011;5946;51.770;8.548;2024-01-10T00:52:41;13.77;;;6.90;;
11777;SDS011;5946;51.770;8.548;2024-01-10T00:55:07;15.67;;;7.13;;
11777;SDS011;5946;51.770;8.548;2024-01-10T00:57:33;13.17;;;7.10;;
11777;SDS011;5946;51.770;8.548;2024-01-10T00:59:59;13.30;;;7.17;;
11777;SDS011;5946;51.770;8.548;2024-01-10T01:02:25;14.90;;;7.80;;
11777;SDS011;5946;51.770;8.548;2024-01-10T01:04:51;16.70;;;7.53;;
11777;SDS011;5946;51.770;8.548;2024-01-10T01:07:17;12.83;;;6.87;;
11777;SDS011;5946;51.770;8.548;2024-01-10T01:09:43;16.57;;;7.07;;
11777;SDS011;5946;51.770;8.548;2024-01-10T01:12:09;14.43;;;7.47;;
11777;SDS011;5946;51.770;8.548;2024-01-10T01:14:35;13.97;;;7.03;;
11777;SDS011;5946;51.770;8.548;2024-01-10T01:17:02;13.77;;;6.90;;
11777;SDS011;5946;51.770;8.548;2024-01-10T01:19:27;14.97;;;7.43;;
11777;SDS011;5946;51.770;8.548;2024-01-10T01:21:53;13.37;;;6.73;;
11777;SDS011;5946;51.770;8.548;2024-01-10T01:24:19;15.43;;;7.67;;
11777;SDS011;5946;51.770;8.548;2024-01-10T01:26:45;14.00;;;7.27;;
11777;SDS011;5946;51.770;8.548;2024-01-10T01:29:11;14.40;;;7.27;;
11777;SDS011;5946;51.770;8.548;2024-01-10T01:31:37;13.47;;;6.90;;
11777;SDS011;5946;51.770;8.548;2024-01-10T01:34:03;13.33;;;6.60;;
11777;SDS011;5946;51.770;8.548;2024-01-10T01:36:29;13.87;;;7.03;;
11777;SDS011;5946;51.770;8.548;2024-01-10T01:38:55;13.97;;;6.63;;
11777;SDS011;5946;51.770;8.548;2024-01-10T01:41:21;13.67;;;7.40;;
11777;SDS011;5946;51.770;8.548;2024-01-10T01:43:47;11.40;;;6.30;;
11777;SDS011;5946;51.770;8.548;2024-01-10T01:46:13;15.27;;;7.50;;
11777;SDS011;5946;51.770;8.548;2024-01-10T01:48:39;15.83;;;7.73;;
11777;SDS011;5946;51.770;8.548;2024-01-10T01:51:07;14.23;;;7.47;;
11777;SDS011;5946;51.770;8.548;2024-01-10T01:53:33;15.03;;;6.97;;
11777;SDS011;5946;51.770;8.548;2024-01-10T01:56:00;17.10;;;7.20;;
11777;SDS011;5946;51.770;8.548;2024-01-10T01:58:28;13.93;;;7.03;;
11777;SDS011;5946;51.770;8.548;2024-01-10T02:00:54;13.13;;;7.37;;
11777;SDS011;5946;51.770;8.548;2024-01-10T02:03:20;14.57;;;7.20;;
11777;SDS011;5946;51.770;8.548;2024-01-10T02:05:46;13.77;;;6.70;;
11777;SDS011;5946;51.770;8.548;2024-01-10T02:08:13;13.50;;;7.23;;
11777;SDS011;5946;51.770;8.548;2024-01-10T02:10:39;17.40;;;8.03;;
11777;SDS011;5946;51.770;8.548;2024-01-10T02:13:05;14.67;;;7.50;;
11777;SDS011;5946;51.770;8.548;2024-01-10T02:15:33;13.60;;;7.70;;
11777;SDS011;5946;51.770;8.548;2024-01-10T02:17:59;15.53;;;7.77;;
11777;SDS011;5946;51.770;8.548;2024-01-10T02:20:25;16.70;;;8.03;;
11777;SDS011;5946;51.770;8.548;2024-01-10T02:22:51;13.73;;;6.93;;
11777;SDS011;5946;51.770;8.548;2024-01-10T02:25:17;14.23;;;7.83;;
11777;SDS011;5946;51.770;8.548;2024-01-10T02:27:43;16.07;;;7.00;;
11777;SDS011;5946;51.770;8.548;2024-01-10T02:30:09;16.27;;;7.43;;
11777;SDS011;5946;51.770;8.548;2024-01-10T02:32:36;16.17;;;8.47;;
11777;SDS011;5946;51.770;8.548;2024-01-10T02:35:02;16.30;;;8.07;;
11777;SDS011;5946;51.770;8.548;2024-01-10T02:37:28;14.33;;;7.80;;
11777;SDS011;5946;51.770;8.548;2024-01-10T02:39:54;15.57;;;7.80;;
11777;SDS011;5946;51.770;8.548;2024-01-10T02:42:20;16.73;;;8.10;;
11777;SDS011;5946;51.770;8.548;2024-01-10T02:44:46;12.37;;;7.07;;
11777;SDS011;5946;51.770;8.548;2024-01-10T02:47:12;14.07;;;7.67;;
11777;SDS011;5946;51.770;8.548;2024-01-10T02:49:38;14.27;;;7.60;;
11777;SDS011;5946;51.770;8.548;2024-01-10T02:52:04;14.30;;;7.40;;
11777;SDS011;5946;51.770;8.548;2024-01-10T02:54:30;15.33;;;7.37;;
11777;SDS011;5946;51.770;8.548;2024-01-10T02:56:56;15.97;;;8.33;;
11777;SDS011;5946;51.770;8.548;2024-01-10T02:59:22;16.60;;;7.70;;
11777;SDS011;5946;51.770;8.548;2024-01-10T03:01:48;14.47;;;7.23;;
11777;SDS011;5946;51.770;8.548;2024-01-10T03:04:14;16.00;;;7.57;;
11777;SDS011;5946;51.770;8.548;2024-01-10T03:06:40;13.67;;;8.00;;
11777;SDS011;5946;51.770;8.548;2024-01-10T03:09:06;17.00;;;8.03;;
11777;SDS011;5946;51.770;8.548;2024-01-10T03:11:32;14.27;;;7.87;;
11777;SDS011;5946;51.770;8.548;2024-01-10T03:14:00;14.50;;;7.53;;
11777;SDS011;5946;51.770;8.548;2024-01-10T03:16:27;15.10;;;7.87;;
11777;SDS011;5946;51.770;8.548;2024-01-10T03:18:53;16.50;;;7.83;;
11777;SDS011;5946;51.770;8.548;2024-01-10T03:21:19;15.37;;;7.77;;
11777;SDS011;5946;51.770;8.548;2024-01-10T03:23:49;14.77;;;7.60;;
11777;SDS011;5946;51.770;8.548;2024-01-10T03:26:15;15.67;;;8.63;;
11777;SDS011;5946;51.770;8.548;2024-01-10T03:28:41;15.07;;;8.30;;
11777;SDS011;5946;51.770;8.548;2024-01-10T03:31:07;19.30;;;8.90;;
11777;SDS011;5946;51.770;8.548;2024-01-10T03:33:33;14.77;;;7.57;;
11777;SDS011;5946;51.770;8.548;2024-01-10T03:35:59;16.80;;;8.13;;
11777;SDS011;5946;51.770;8.548;2024-01-10T03:38:25;20.57;;;8.50;;
11777;SDS011;5946;51.770;8.548;2024-01-10T03:40:51;15.50;;;8.40;;
11777;SDS011;5946;51.770;8.548;2024-01-10T03:43:17;18.27;;;8.30;;
11777;SDS011;5946;51.770;8.548;2024-01-10T03:45:42;14.77;;;7.83;;
11777;SDS011;5946;51.770;8.548;2024-01-10T03:48:09;17.97;;;8.77;;
11777;SDS011;5946;51.770;8.548;2024-01-10T03:50:34;18.07;;;9.23;;
11777;SDS011;5946;51.770;8.548;2024-01-10T03:53:00;17.53;;;8.07;;
11777;SDS011;5946;51.770;8.548;2024-01-10T03:55:26;14.67;;;7.83;;
11777;SDS011;5946;51.770;8.548;2024-01-10T03:57:52;18.90;;;8.73;;
11777;SDS011;5946;51.770;8.548;2024-01-10T04:00:18;15.37;;;7.83;;
11777;SDS011;5946;51.770;8.548;2024-01-10T04:02:45;18.40;;;9.27;;
11777;SDS011;5946;51.770;8.548;2024-01-10T04:05:11;15.87;;;7.90;;
11777;SDS011;5946;51.770;8.548;2024-01-10T04:07:40;17.97;;;9.00;;
11777;SDS011;5946;51.770;8.548;2024-01-10T04:10:08;17.77;;;9.03;;
11777;SDS011;5946;51.770;8.548;2024-01-10T04:12:35;17.83;;;8.17;;
11777;SDS011;5946;51.770;8.548;2024-01-10T04:15:01;21.40;;;8.97;;
11777;SDS011;5946;51.770;8.548;2024-01-10T04:17:27;18.20;;;8.90;;
11777;SDS011;5946;51.770;8.548;2024-01-10T04:19:53;17.00;;;7.87;;
11777;SDS011;5946;51.770;8.548;2024-01-10T04:22:19;16.50;;;8.67;;
11777;SDS011;5946;51.770;8.548;2024-01-10T04:24:45;16.87;;;8.37;;
11777;SDS011;5946;51.770;8.548;2024-01-10T04:27:11;18.83;;;8.70;;
11777;SDS011;5946;51.770;8.548;2024-01-10T04:29:37;18.17;;;8.33;;
11777;SDS011;5946;51.770;8.548;2024-01-10T04:32:03;18.40;;;9.40;;
11777;SDS011;5946;51.770;8.548;2024-01-10T04:34:29;19.63;;;9.60;;
11777;SDS011;5946;51.770;8.548;2024-01-10T04:36:55;18.73;;;9.23;;
11777;SDS011;5946;51.770;8.548;2024-01-10T04:39:21;19.20;;;9.13;;
11777;SDS011;5946;51.770;8.548;2024-01-10T04:41:47;17.63;;;8.07;;
11777;SDS011;5946;51.770;8.548;2024-01-10T04:44:13;19.10;;;9.07;;
11777;SDS011;5946;51.770;8.548;2024-01-10T04:46:39;19.83;;;9.13;;
11777;SDS011;5946;51.770;8.548;2024-01-10T04:49:06;21.97;;;9.70;;
11777;SDS011;5946;51.770;8.548;2024-01-10T04:51:32;19.47;;;9.50;;
11777;SDS011;5946;51.770;8.548;2024-01-10T04:53:58;18.40;;;9.40;;
11777;SDS011;5946;51.770;8.548;2024-01-10T04:56:24;22.40;;;9.13;;
11777;SDS011;5946;51.770;8.548;2024-01-10T04:58:50;24.50;;;9.60;;
11777;SDS011;5946;51.770;8.548;2024-01-10T05:01:16;22.47;;;9.83;;
11777;SDS011;5946;51.770;8.548;2024-01-10T05:03:41;19.27;;;9.30;;
11777;SDS011;5946;51.770;8.548;2024-01-10T05:06:07;23.27;;;10.73;;
11777;SDS011;5946;51.770;8.548;2024-01-10T05:08:33;21.20;;;9.70;;
11777;SDS011;5946;51.770;8.548;2024-01-10T05:10:59;19.30;;;9.90;;
11777;SDS011;5946;51.770;8.548;2024-01-10T05:13:25;21.43;;;10.00;;
11777;SDS011;5946;51.770;8.548;2024-01-10T05:15:51;20.67;;;9.17;;
11777;SDS011;5946;51.770;8.548;2024-01-10T05:18:17;22.47;;;10.20;;
11777;SDS011;5946;51.770;8.548;2024-01-10T05:20:44;21.73;;;10.87;;
11777;SDS011;5946;51.770;8.548;2024-01-10T05:23:10;19.60;;;10.40;;
11777;SDS011;5946;51.770;8.548;2024-01-10T05:25:36;17.97;;;9.33;;
11777;SDS011;5946;51.770;8.548;2024-01-10T05:28:02;20.63;;;9.60;;
11777;SDS011;5946;51.770;8.548;2024-01-10T05:30:28;19.13;;;9.70;;
11777;SDS011;5946;51.770;8.548;2024-01-10T05:32:54;18.43;;;9.90;;
11777;SDS011;5946;51.770;8.548;2024-01-10T05:35:20;19.60;;;10.33;;
11777;SDS011;5946;51.770;8.548;2024-01-10T05:37:45;21.03;;;10.03;;
11777;SDS011;5946;51.770;8.548;2024-01-10T05:40:11;25.37;;;10.77;;
11777;SDS011;5946;51.770;8.548;2024-01-10T05:42:37;22.33;;;10.87;;
11777;SDS011;5946;51.770;8.548;2024-01-10T05:45:04;21.80;;;10.23;;
11777;SDS011;5946;51.770;8.548;2024-01-10T05:47:30;23.40;;;11.10;;
11777;SDS011;5946;51.770;8.548;2024-01-10T05:49:56;25.60;;;11.43;;
11777;SDS011;5946;51.770;8.548;2024-01-10T05:52:22;25.87;;;11.37;;
11777;SDS011;5946;51.770;8.548;2024-01-10T05:54:48;24.17;;;11.30;;
11777;SDS011;5946;51.770;8.548;2024-01-10T05:57:14;24.73;;;10.73;;
11777;SDS011;5946;51.770;8.548;2024-01-10T05:59:41;20.80;;;10.83;;
11777;SDS011;5946;51.770;8.548;2024-01-10T06:02:06;26.27;;;10.87;;
11777;SDS011;5946;51.770;8.548;2024-01-10T06:04:32;29.23;;;14.00;;
11777;SDS011;5946;51.770;8.548;2024-01-10T06:06:58;32.37;;;14.07;;
11777;SDS011;5946;51.770;8.548;2024-01-10T06:09:24;30.77;;;14.50;;
11777;SDS011;5946;51.770;8.548;2024-01-10T06:11:50;28.00;;;14.07;;
11777;SDS011;5946;51.770;8.548;2024-01-10T06:14:16;29.80;;;13.83;;
11777;SDS011;5946;51.770;8.548;2024-01-10T06:16:44;30.77;;;15.17;;
11777;SDS011;5946;51.770;8.548;2024-01-10T06:19:10;33.40;;;13.73;;
11777;SDS011;5946;51.770;8.548;2024-01-10T06:21:37;31.77;;;14.07;;
11777;SDS011;5946;51.770;8.548;2024-01-10T06:24:03;29.70;;;13.53;;
11777;SDS011;5946;51.770;8.548;2024-01-10T06:26:29;31.00;;;14.00;;
11777;SDS011;5946;51.770;8.548;2024-01-10T06:28:55;39.30;;;15.97;;
11777;SDS011;5946;51.770;8.548;2024-01-10T06:31:21;26.93;;;14.00;;
11777;SDS011;5946;51.770;8.548;2024-01-10T06:33:47;30.07;;;14.03;;
11777;SDS011;5946;51.770;8.548;2024-01-10T06:36:13;34.47;;;14.50;;
11777;SDS011;5946;51.770;8.548;2024-01-10T06:38:39;33.90;;;14.53;;
11777;SDS011;5946;51.770;8.548;2024-01-10T06:41:08;34.33;;;14.40;;
11777;SDS011;5946;51.770;8.548;2024-01-10T06:43:34;37.60;;;15.07;;
11777;SDS011;5946;51.770;8.548;2024-01-10T06:46:00;35.37;;;14.97;;
11777;SDS011;5946;51.770;8.548;2024-01-10T06:48:28;32.77;;;15.03;;
11777;SDS011;5946;51.770;8.548;2024-01-10T06:50:54;34.73;;;15.23;;
11777;SDS011;5946;51.770;8.548;2024-01-10T06:53:20;33.53;;;14.77;;
11777;SDS011;5946;51.770;8.548;2024-01-10T06:55:46;32.87;;;14.73;;
11777;SDS011;5946;51.770;8.548;2024-01-10T06:58:13;32.67;;;14.77;;
11777;SDS011;5946;51.770;8.548;2024-01-10T07:00:39;32.57;;;15.07;;
11777;SDS011;5946;51.770;8.548;2024-01-10T07:03:05;33.17;;;13.83;;
11777;SDS011;5946;51.770;8.548;2024-01-10T07:05:31;31.43;;;15.30;;
11777;SDS011;5946;51.770;8.548;2024-01-10T07:07:57;33.97;;;15.23;;
11777;SDS011;5946;51.770;8.548;2024-01-10T07:10:23;30.30;;;14.60;;
11777;SDS011;5946;51.770;8.548;2024-01-10T07:12:53;32.60;;;14.97;;
11777;SDS011;5946;51.770;8.548;2024-01-10T07:15:19;32.13;;;15.40;;
11777;SDS011;5946;51.770;8.548;2024-01-10T07:17:45;35.50;;;16.43;;
11777;SDS011;5946;51.770;8.548;2024-01-10T07:20:11;32.77;;;14.30;;
11777;SDS011;5946;51.770;8.548;2024-01-10T07:22:38;42.30;;;19.47;;
11777;SDS011;5946;51.770;8.548;2024-01-10T07:25:09;29.63;;;14.50;;
11777;SDS011;5946;51.770;8.548;2024-01-10T07:27:35;35.63;;;15.87;;
11777;SDS011;5946;51.770;8.548;2024-01-10T07:30:07;38.33;;;17.83;;
11777;SDS011;5946;51.770;8.548;2024-01-10T07:32:38;37.47;;;17.27;;
11777;SDS011;5946;51.770;8.548;2024-01-10T07:35:04;27.67;;;13.70;;
11777;SDS011;5946;51.770;8.548;2024-01-10T07:37:30;26.27;;;12.97;;
11777;SDS011;5946;51.770;8.548;2024-01-10T07:39:56;27.00;;;12.83;;
11777;SDS011;5946;51.770;8.548;2024-01-10T07:42:22;28.73;;;13.43;;
11777;SDS011;5946;51.770;8.548;2024-01-10T07:44:49;31.27;;;14.23;;
11777;SDS011;5946;51.770;8.548;2024-01-10T07:47:15;29.57;;;13.27;;
11777;SDS011;5946;51.770;8.548;2024-01-10T07:49:41;28.23;;;13.27;;
11777;SDS011;5946;51.770;8.548;2024-01-10T07:52:07;27.57;;;12.53;;
11777;SDS011;5946;51.770;8.548;2024-01-10T07:54:33;30.63;;;13.97;;
11777;SDS011;5946;51.770;8.548;2024-01-10T07:56:59;25.93;;;12.07;;
11777;SDS011;5946;51.770;8.548;2024-01-10T07:59:25;28.87;;;14.23;;
11777;SDS011;5946;51.770;8.548;2024-01-10T08:01:55;31.17;;;13.57;;
11777;SDS011;5946;51.770;8.548;2024-01-10T08:04:24;32.27;;;15.47;;
11777;SDS011;5946;51.770;8.548;2024-01-10T08:06:51;30.70;;;14.40;;
11777;SDS011;5946;51.770;8.548;2024-01-10T08:09:17;33.73;;;15.30;;
11777;SDS011;5946;51.770;8.548;2024-01-10T08:11:44;33.90;;;17.07;;
11777;SDS011;5946;51.770;8.548;2024-01-10T08:14:10;28.23;;;14.60;;
11777;SDS011;5946;51.770;8.548;2024-01-10T08:16:36;30.33;;;15.33;;
11777;SDS011;5946;51.770;8.548;2024-01-10T08:19:02;49.60;;;21.47;;
11777;SDS011;5946;51.770;8.548;2024-01-10T08:21:28;171.90;;;63.43;;
11777;SDS011;5946;51.770;8.548;2024-01-10T08:23:54;147.80;;;53.10;;
11777;SDS011;5946;51.770;8.548;2024-01-10T08:26:19;135.17;;;48.50;;
11777;SDS011;5946;51.770;8.548;2024-01-10T08:28:45;92.43;;;35.57;;
11777;SDS011;5946;51.770;8.548;2024-01-10T08:31:11;54.30;;;24.33;;
11777;SDS011;5946;51.770;8.548;2024-01-10T08:33:38;68.30;;;29.03;;
11777;SDS011;5946;51.770;8.548;2024-01-10T08:36:04;35.43;;;17.70;;
11777;SDS011;5946;51.770;8.548;2024-01-10T08:38:30;34.40;;;16.20;;
11777;SDS011;5946;51.770;8.548;2024-01-10T08:40:56;33.30;;;17.07;;
11777;SDS011;5946;51.770;8.548;2024-01-10T08:43:22;39.60;;;19.07;;
11777;SDS011;5946;51.770;8.548;2024-01-10T08:45:48;40.17;;;20.80;;
11777;SDS011;5946;51.770;8.548;2024-01-10T08:48:14;38.70;;;19.33;;
11777;SDS011;5946;51.770;8.548;2024-01-10T08:50:40;36.03;;;17.80;;
11777;SDS011;5946;51.770;8.548;2024-01-10T08:53:06;35.53;;;17.03;;
11777;SDS011;5946;51.770;8.548;2024-01-10T08:55:32;30.20;;;17.33;;
11777;SDS011;5946;51.770;8.548;2024-01-10T08:57:59;34.23;;;17.30;;
11777;SDS011;5946;51.770;8.548;2024-01-10T09:00:25;32.40;;;15.83;;
11777;SDS011;5946;51.770;8.548;2024-01-10T09:02:51;32.67;;;16.03;;
11777;SDS011;5946;51.770;8.548;2024-01-10T09:05:18;32.63;;;16.20;;
11777;SDS011;5946;51.770;8.548;2024-01-10T09:07:44;34.23;;;16.23;;
11777;SDS011;5946;51.770;8.548;2024-01-10T09:10:10;33.73;;;17.67;;
11777;SDS011;5946;51.770;8.548;2024-01-10T09:12:36;39.03;;;20.87;;
11777;SDS011;5946;51.770;8.548;2024-01-10T09:15:02;32.93;;;16.87;;
11777;SDS011;5946;51.770;8.548;2024-01-10T09:17:28;35.97;;;18.80;;
11777;SDS011;5946;51.770;8.548;2024-01-10T09:19:54;30.17;;;16.50;;
11777;SDS011;5946;51.770;8.548;2024-01-10T09:22:20;30.70;;;15.33;;
11777;SDS011;5946;51.770;8.548;2024-01-10T09:24:46;31.87;;;16.07;;
11777;SDS011;5946;51.770;8.548;2024-01-10T09:27:12;28.13;;;14.27;;
11777;SDS011;5946;51.770;8.548;2024-01-10T09:29:38;28.10;;;14.00;;
11777;SDS011;5946;51.770;8.548;2024-01-10T09:32:04;32.67;;;15.23;;
11777;SDS011;5946;51.770;8.548;2024-01-10T09:34:30;30.13;;;15.43;;
11777;SDS011;5946;51.770;8.548;2024-01-10T09:36:57;32.17;;;14.80;;
11777;SDS011;5946;51.770;8.548;2024-01-10T09:39:23;30.67;;;15.57;;
11777;SDS011;5946;51.770;8.548;2024-01-10T09:41:49;29.70;;;15.50;;
11777;SDS011;5946;51.770;8.548;2024-01-10T09:44:16;31.63;;;15.83;;
11777;SDS011;5946;51.770;8.548;2024-01-10T09:46:46;32.07;;;15.90;;
11777;SDS011;5946;51.770;8.548;2024-01-10T09:49:13;31.43;;;15.90;;
11777;SDS011;5946;51.770;8.548;2024-01-10T09:51:39;34.03;;;16.23;;
11777;SDS011;5946;51.770;8.548;2024-01-10T09:54:05;34.90;;;16.80;;
11777;SDS011;5946;51.770;8.548;2024-01-10T09:56:32;33.67;;;17.43;;
11777;SDS011;5946;51.770;8.548;2024-01-10T09:58:58;32.90;;;17.00;;
11777;SDS011;5946;51.770;8.548;2024-01-10T10:01:24;29.80;;;15.43;;
11777;SDS011;5946;51.770;8.548;2024-01-10T10:03:50;34.20;;;18.90;;
11777;SDS011;5946;51.770;8.548;2024-01-10T10:06:16;36.50;;;18.50;;
11777;SDS011;5946;51.770;8.548;2024-01-10T10:08:42;140.57;;;58.40;;
11777;SDS011;5946;51.770;8.548;2024-01-10T10:11:12;42.50;;;20.27;;
11777;SDS011;5946;51.770;8.548;2024-01-10T10:13:39;39.27;;;18.00;;
11777;SDS011;5946;51.770;8.548;2024-01-10T10:16:07;42.97;;;22.83;;
11777;SDS011;5946;51.770;8.548;2024-01-10T10:18:35;29.30;;;15.60;;
11777;SDS011;5946;51.770;8.548;2024-01-10T10:21:09;35.63;;;16.07;;
11777;SDS011;5946;51.770;8.548;2024-01-10T10:23:36;32.97;;;16.50;;
11777;SDS011;5946;51.770;8.548;2024-01-10T10:26:12;32.70;;;15.67;;
11777;SDS011;5946;51.770;8.548;2024-01-10T10:28:43;29.57;;;15.80;;
11777;SDS011;5946;51.770;8.548;2024-01-10T10:31:09;30.90;;;16.53;;
11777;SDS011;5946;51.770;8.548;2024-01-10T10:33:36;37.17;;;18.30;;
11777;SDS011;5946;51.770;8.548;2024-01-10T10:36:02;32.37;;;16.90;;
11777;SDS011;5946;51.770;8.548;2024-01-10T10:38:28;34.37;;;16.90;;
11777;SDS011;5946;51.770;8.548;2024-01-10T10:40:54;34.10;;;17.13;;
11777;SDS011;5946;51.770;8.548;2024-01-10T10:43:21;35.63;;;18.40;;
11777;SDS011;5946;51.770;8.548;2024-01-10T10:45:48;30.90;;;15.93;;
11777;SDS011;5946;51.770;8.548;2024-01-10T10:48:16;32.70;;;16.60;;
11777;SDS011;5946;51.770;8.548;2024-01-10T10:50:42;30.87;;;16.00;;
11777;SDS011;5946;51.770;8.548;2024-01-10T10:53:13;35.10;;;16.17;;
11777;SDS011;5946;51.770;8.548;2024-01-10T10:55:39;28.00;;;15.73;;
11777;SDS011;5946;51.770;8.548;2024-01-10T10:58:06;28.93;;;15.10;;
11777;SDS011;5946;51.770;8.548;2024-01-10T11:00:32;31.13;;;15.57;;
11777;SDS011;5946;51.770;8.548;2024-01-10T11:02:58;33.07;;;16.53;;
11777;SDS011;5946;51.770;8.548;2024-01-10T11:05:25;29.63;;;15.50;;
11777;SDS011;5946;51.770;8.548;2024-01-10T11:07:51;27.13;;;14.60;;
11777;SDS011;5946;51.770;8.548;2024-01-10T11:10:19;31.43;;;14.43;;
11777;SDS011;5946;51.770;8.548;2024-01-10T11:13:49;24.50;;;13.27;;
11777;SDS011;5946;51.770;8.548;2024-01-10T11:15:47;26.67;;;14.10;;
11777;SDS011;5946;51.770;8.548;2024-01-10T11:18:26;26.70;;;13.83;;
11777;SDS011;5946;51.770;8.548;2024-01-10T11:23:44;32.17;;;15.73;;
11777;SDS011;5946;51.770;8.548;2024-01-10T11:26:11;28.20;;;13.70;;
11777;SDS011;5946;51.770;8.548;2024-01-10T11:28:38;23.50;;;12.53;;
11777;SDS011;5946;51.770;8.548;2024-01-10T11:31:05;25.93;;;13.63;;
11777;SDS011;5946;51.770;8.548;2024-01-10T11:33:32;26.70;;;13.37;;
11777;SDS011;5946;51.770;8.548;2024-01-10T11:36:17;23.57;;;13.40;;
11777;SDS011;5946;51.770;8.548;2024-01-10T11:41:32;25.23;;;12.90;;
11777;SDS011;5946;51.770;8.548;2024-01-10T11:46:38;20.93;;;11.43;;
11777;SDS011;5946;51.770;8.548;2024-01-10T11:49:11;22.63;;;11.93;;
11777;SDS011;5946;51.770;8.548;2024-01-10T11:51:38;24.63;;;11.97;;
11777;SDS011;5946;51.770;8.548;2024-01-10T11:54:04;26.73;;;12.57;;
11777;SDS011;5946;51.770;8.548;2024-01-10T11:56:40;22.77;;;12.07;;
11777;SDS011;5946;51.770;8.548;2024-01-10T11:59:07;22.07;;;11.37;;
11777;SDS011;5946;51.770;8.548;2024-01-10T12:01:35;20.87;;;11.03;;
11777;SDS011;5946;51.770;8.548;2024-01-10T12:04:02;21.07;;;10.73;;
11777;SDS011;5946;51.770;8.548;2024-01-10T12:06:29;22.47;;;11.77;;
11777;SDS011;5946;51.770;8.548;2024-01-10T12:08:55;22.00;;;11.57;;
11777;SDS011;5946;51.770;8.548;2024-01-10T12:11:21;18.83;;;10.37;;
11777;SDS011;5946;51.770;8.548;2024-01-10T12:13:47;21.03;;;10.80;;
11777;SDS011;5946;51.770;8.548;2024-01-10T12:16:13;18.20;;;10.47;;
11777;SDS011;5946;51.770;8.548;2024-01-10T12:18:39;21.27;;;10.47;;
11777;SDS011;5946;51.770;8.548;2024-01-10T12:21:06;20.37;;;11.20;;
11777;SDS011;5946;51.770;8.548;2024-01-10T12:23:33;19.67;;;11.20;;
11777;SDS011;5946;51.770;8.548;2024-01-10T12:26:02;17.67;;;10.37;;
11777;SDS011;5946;51.770;8.548;2024-01-10T12:28:33;22.47;;;11.80;;
11777;SDS011;5946;51.770;8.548;2024-01-10T12:30:59;23.97;;;10.73;;
11777;SDS011;5946;51.770;8.548;2024-01-10T12:33:25;20.53;;;11.00;;
11777;SDS011;5946;51.770;8.548;2024-01-10T12:36:09;18.80;;;11.07;;
11777;SDS011;5946;51.770;8.548;2024-01-10T12:38:36;20.27;;;11.17;;
11777;SDS011;5946;51.770;8.548;2024-01-10T12:41:02;22.53;;;11.80;;
11777;SDS011;5946;51.770;8.548;2024-01-10T12:43:29;27.33;;;11.60;;
11777;SDS011;5946;51.770;8.548;2024-01-10T12:46:07;20.33;;;11.40;;
11777;SDS011;5946;51.770;8.548;2024-01-10T12:48:35;23.73;;;11.60;;
11777;SDS011;5946;51.770;8.548;2024-01-10T12:51:03;21.37;;;11.43;;
11777;SDS011;5946;51.770;8.548;2024-01-10T12:53:31;20.77;;;10.80;;
11777;SDS011;5946;51.770;8.548;2024-01-10T12:55:57;17.30;;;10.47;;
11777;SDS011;5946;51.770;8.548;2024-01-10T12:58:23;20.77;;;10.60;;
11777;SDS011;5946;51.770;8.548;2024-01-10T13:00:49;20.27;;;10.60;;
11777;SDS011;5946;51.770;8.548;2024-01-10T13:03:15;19.03;;;11.17;;
11777;SDS011;5946;51.770;8.548;2024-01-10T13:05:42;20.27;;;11.17;;
11777;SDS011;5946;51.770;8.548;2024-01-10T13:08:08;20.17;;;11.70;;
11777;SDS011;5946;51.770;8.548;2024-01-10T13:10:36;20.60;;;10.93;;
11777;SDS011;5946;51.770;8.548;2024-01-10T13:13:02;20.77;;;11.90;;
11777;SDS011;5946;51.770;8.548;2024-01-10T13:15:28;19.30;;;11.10;;
11777;SDS011;5946;51.770;8.548;2024-01-10T13:17:54;20.10;;;11.80;;
11777;SDS011;5946;51.770;8.548;2024-01-10T13:20:20;21.57;;;12.07;;
11777;SDS011;5946;51.770;8.548;2024-01-10T13:22:46;20.97;;;11.17;;
11777;SDS011;5946;51.770;8.548;2024-01-10T13:25:12;19.00;;;10.87;;
11777;SDS011;5946;51.770;8.548;2024-01-10T13:27:38;23.20;;;12.30;;
11777;SDS011;5946;51.770;8.548;2024-01-10T13:30:04;23.90;;;12.73;;
11777;SDS011;5946;51.770;8.548;2024-01-10T13:32:30;20.47;;;12.03;;
11777;SDS011;5946;51.770;8.548;2024-01-10T13:34:56;21.23;;;12.53;;
11777;SDS011;5946;51.770;8.548;2024-01-10T13:37:22;20.00;;;11.97;;
11777;SDS011;5946;51.770;8.548;2024-01-10T13:39:51;26.67;;;13.20;;
11777;SDS011;5946;51.770;8.548;2024-01-10T13:42:17;24.40;;;12.07;;
11777;SDS011;5946;51.770;8.548;2024-01-10T13:44:43;21.27;;;11.27;;
11777;SDS011;5946;51.770;8.548;2024-01-10T13:47:09;24.00;;;12.80;;
11777;SDS011;5946;51.770;8.548;2024-01-10T13:49:35;26.03;;;15.87;;
11777;SDS011;5946;51.770;8.548;2024-01-10T13:52:01;34.07;;;18.67;;
11777;SDS011;5946;51.770;8.548;2024-01-10T13:54:27;29.87;;;17.17;;
11777;SDS011;5946;51.770;8.548;2024-01-10T13:56:53;24.67;;;16.20;;
11777;SDS011;5946;51.770;8.548;2024-01-10T13:59:19;20.13;;;11.80;;
11777;SDS011;5946;51.770;8.548;2024-01-10T14:01:45;27.90;;;15.13;;
11777;SDS011;5946;51.770;8.548;2024-01-10T14:04:11;24.17;;;14.20;;
11777;SDS011;5946;51.770;8.548;2024-01-10T14:06:37;21.00;;;12.67;;
11777;SDS011;5946;51.770;8.548;2024-01-10T14:09:03;23.53;;;13.73;;
11777;SDS011;5946;51.770;8.548;2024-01-10T14:11:29;23.57;;;13.43;;
11777;SDS011;5946;51.770;8.548;2024-01-10T14:13:55;22.57;;;13.40;;
11777;SDS011;5946;51.770;8.548;2024-01-10T14:16:21;20.00;;;12.37;;
11777;SDS011;5946;51.770;8.548;2024-01-10T14:18:47;21.93;;;12.47;;
11777;SDS011;5946;51.770;8.548;2024-01-10T14:21:13;24.40;;;11.43;;
11777;SDS011;5946;51.770;8.548;2024-01-10T14:23:39;21.87;;;12.40;;
11777;SDS011;5946;51.770;8.548;2024-01-10T14:26:05;25.57;;;13.40;;
11777;SDS011;5946;51.770;8.548;2024-01-10T14:28:31;21.40;;;11.70;;
11777;SDS011;5946;51.770;8.548;2024-01-10T14:30:57;19.37;;;11.40;;
11777;SDS011;5946;51.770;8.548;2024-01-10T14:33:25;19.80;;;11.30;;
11777;SDS011;5946;51.770;8.548;2024-01-10T14:35:51;18.43;;;11.00;;
11777;SDS011;5946;51.770;8.548;2024-01-10T14:38:17;19.37;;;10.47;;
11777;SDS011;5946;51.770;8.548;2024-01-10T14:40:43;19.13;;;10.73;;
11777;SDS011;5946;51.770;8.548;2024-01-10T14:43:09;20.67;;;11.40;;